createdAt,value
2018-04-24T00:01:32.088Z,99633
2018-04-24T00:04:00.199Z,99639
2018-04-24T00:06:28.296Z,99627
2018-04-24T00:08:56.411Z,99631
2018-04-24T00:11:24.519Z,99640
2018-04-24T00:13:52.628Z,99629
2018-04-24T00:16:20.746Z,99632
2018-04-24T00:18:48.844Z,99631
2018-04-24T00:21:16.964Z,99621
2018-04-24T00:23:45.071Z,99623
2018-04-24T00:26:13.250Z,99633
2018-04-24T00:28:42.125Z,99631
2018-04-24T00:31:11.062Z,99625
2018-04-24T00:33:39.186Z,99627
2018-04-24T00:36:07.295Z,99620
2018-04-24T00:38:35.425Z,99629
2018-04-24T00:41:04.297Z,99627
2018-04-24T00:43:32.408Z,99629
2018-04-24T00:46:00.555Z,99621
2018-04-24T00:48:28.735Z,99629
2018-04-24T00:50:56.892Z,99628
2018-04-24T00:53:39.803Z,99624
2018-04-24T00:56:07.912Z,99638
2018-04-24T00:58:37.653Z,99628
2018-04-24T01:01:05.797Z,99635
2018-04-24T01:03:33.904Z,99636
2018-04-24T01:06:02.229Z,99636
2018-04-24T01:08:30.421Z,99648
2018-04-24T01:10:58.588Z,99650
2018-04-24T01:13:26.701Z,99647
2018-04-24T01:15:54.813Z,99647
2018-04-24T01:18:23.696Z,99647
2018-04-24T01:20:51.823Z,99656
2018-04-24T01:23:19.935Z,99649
2018-04-24T01:25:48.053Z,99660
2018-04-24T01:28:16.951Z,99650
2018-04-24T01:30:45.053Z,99657
2018-04-24T01:33:13.160Z,99655
2018-04-24T01:35:41.278Z,99658
2018-04-24T01:38:10.165Z,99661
2018-04-24T01:40:39.057Z,99656
2018-04-24T01:43:07.995Z,99663
2018-04-24T01:45:36.121Z,99661
2018-04-24T01:48:04.999Z,99661
2018-04-24T01:50:33.118Z,99661
2018-04-24T01:53:01.221Z,99661
2018-04-24T01:55:29.337Z,99652
2018-04-24T01:57:57.443Z,99651
2018-04-24T02:00:26.333Z,99661
2018-04-24T02:02:55.217Z,99661
2018-04-24T02:05:24.080Z,99672
2018-04-24T02:07:52.188Z,99668
2018-04-24T02:10:21.062Z,99663
2018-04-24T02:12:49.182Z,99666
2018-04-24T02:15:17.357Z,99665
2018-04-24T02:17:46.232Z,99656
2018-04-24T02:20:14.333Z,99658
2018-04-24T02:22:42.484Z,99666
2018-04-24T02:25:11.355Z,99665
2018-04-24T02:27:39.472Z,99655
2018-04-24T02:30:08.372Z,99662
2018-04-24T02:32:36.491Z,99660
2018-04-24T02:35:04.620Z,99657
2018-04-24T02:37:33.485Z,99662
2018-04-24T02:40:02.414Z,99662
2018-04-24T02:42:31.296Z,99669
2018-04-24T02:45:00.195Z,99654
2018-04-24T02:47:29.081Z,99659
2018-04-24T02:49:57.956Z,99664
2018-04-24T02:52:26.101Z,99667
2018-04-24T02:54:54.224Z,99659
2018-04-24T02:57:22.553Z,99665
2018-04-24T02:59:50.664Z,99666
2018-04-24T03:02:18.783Z,99667
2018-04-24T03:04:47.662Z,99667
2018-04-24T03:07:16.549Z,99663
2018-04-24T03:09:44.675Z,99661
2018-04-24T03:12:12.808Z,99668
2018-04-24T03:14:41.718Z,99659
2018-04-24T03:17:10.582Z,99666
2018-04-24T03:19:38.708Z,99670
2018-04-24T03:22:06.809Z,99660
2018-04-24T03:24:34.921Z,99666
2018-04-24T03:27:03.027Z,99663
2018-04-24T03:29:31.145Z,99661
2018-04-24T03:32:00.041Z,99662
2018-04-24T03:34:28.141Z,99665
2018-04-24T03:36:56.317Z,99662
2018-04-24T03:39:24.425Z,99658
2018-04-24T03:41:53.312Z,99661
2018-04-24T03:44:22.195Z,99673
2018-04-24T03:46:50.329Z,99658
2018-04-24T03:49:18.451Z,99650
2018-04-24T03:51:46.572Z,99653
2018-04-24T03:54:14.673Z,99663
2018-04-24T03:56:42.795Z,99660
2018-04-24T03:59:11.677Z,99661
2018-04-24T04:01:40.543Z,99658
2018-04-24T04:04:09.522Z,99650
2018-04-24T04:06:37.639Z,99659
2018-04-24T04:09:06.530Z,99649
2018-04-24T04:11:34.647Z,99647
2018-04-24T04:14:02.786Z,99651
2018-04-24T04:16:30.905Z,99647
2018-04-24T04:19:16.939Z,99647
2018-04-24T04:22:02.969Z,99644
2018-04-24T04:24:44.552Z,99650
2018-04-24T04:27:13.421Z,99645
2018-04-24T04:29:41.532Z,99647
2018-04-24T04:32:09.690Z,99641
2018-04-24T04:34:38.560Z,99643
2018-04-24T04:37:06.732Z,99638
2018-04-24T04:39:34.793Z,99641
2018-04-24T04:42:02.929Z,99640
2018-04-24T04:44:31.038Z,99631
2018-04-24T04:46:59.166Z,99633
2018-04-24T04:49:28.049Z,99631
2018-04-24T04:51:56.189Z,99635
2018-04-24T04:54:24.324Z,99645
2018-04-24T04:56:53.386Z,99640
2018-04-24T04:59:21.524Z,99641
2018-04-24T05:01:49.633Z,99640
2018-04-24T05:04:17.745Z,99640
2018-04-24T05:06:46.637Z,99642
2018-04-24T05:09:14.748Z,99639
2018-04-24T05:11:43.003Z,99637
2018-04-24T05:14:11.882Z,99645
2018-04-24T05:16:40.003Z,99640
2018-04-24T05:19:08.131Z,99643
2018-04-24T05:21:36.228Z,99646
2018-04-24T05:24:05.126Z,99639
2018-04-24T05:26:34.100Z,99641
2018-04-24T05:29:02.151Z,99645
2018-04-24T05:31:30.268Z,99645
2018-04-24T05:33:59.154Z,99634
2018-04-24T05:36:27.278Z,99631
2018-04-24T05:38:55.416Z,99622
2018-04-24T05:41:24.305Z,99616
2018-04-24T05:43:53.880Z,99617
2018-04-24T05:46:22.011Z,99608
2018-04-24T05:48:50.923Z,99607
2018-04-24T05:51:19.047Z,99602
2018-04-24T05:53:47.163Z,99602
2018-04-24T05:56:16.076Z,99613
2018-04-24T05:58:44.251Z,99617
2018-04-24T06:01:12.365Z,99615
2018-04-24T06:03:40.495Z,99616
2018-04-24T06:06:08.608Z,99615
2018-04-24T06:08:36.806Z,99611
2018-04-24T06:11:05.578Z,99619
2018-04-24T06:13:33.731Z,99624
2018-04-24T06:16:01.849Z,99632
2018-04-24T06:18:29.993Z,99609
2018-04-24T06:20:58.113Z,99611
2018-04-24T06:23:26.239Z,99609
2018-04-24T06:25:54.373Z,99601
2018-04-24T06:28:22.499Z,99608
2018-04-24T06:30:50.629Z,99614
2018-04-24T06:33:18.777Z,99617
2018-04-24T06:35:46.901Z,99613
2018-04-24T06:38:15.784Z,99634
2018-04-24T06:40:43.924Z,99638
2018-04-24T06:43:12.049Z,99639
2018-04-24T06:45:40.934Z,99646
2018-04-24T06:48:09.070Z,99653
2018-04-24T06:50:37.189Z,99648
2018-04-24T06:53:05.338Z,99645
2018-04-24T06:55:33.456Z,99647
2018-04-24T06:58:02.378Z,99659
2018-04-24T07:00:30.695Z,99661
2018-04-24T07:02:58.818Z,99643
2018-04-24T07:05:26.969Z,99644
2018-04-24T07:07:55.116Z,99638
2018-04-24T07:10:23.265Z,99633
2018-04-24T07:12:51.415Z,99644
2018-04-24T07:15:20.305Z,99647
2018-04-24T07:17:48.450Z,99639
2018-04-24T07:20:16.585Z,99639
2018-04-24T07:22:44.706Z,99630
2018-04-24T07:25:12.819Z,99638
2018-04-24T07:27:40.937Z,99641
2018-04-24T07:30:09.114Z,99645
2018-04-24T07:32:37.241Z,99639
2018-04-24T07:35:05.350Z,99644
2018-04-24T07:37:33.493Z,99634
2018-04-24T07:40:02.385Z,99639
2018-04-24T07:42:30.502Z,99634
2018-04-24T07:44:58.636Z,99640
2018-04-24T07:47:26.757Z,99634
2018-04-24T07:49:54.890Z,99631
2018-04-24T07:52:23.015Z,99632
2018-04-24T07:54:51.153Z,99631
2018-04-24T07:57:19.266Z,99625
2018-04-24T07:59:47.393Z,99621
2018-04-24T08:02:15.500Z,99610
2018-04-24T08:04:44.391Z,99603
2018-04-24T08:07:12.565Z,99603
2018-04-24T08:09:40.674Z,99604
2018-04-24T08:12:08.788Z,99605
2018-04-24T08:14:36.897Z,99610
2018-04-24T08:17:05.031Z,99598
2018-04-24T08:19:33.137Z,99593
2018-04-24T08:22:01.309Z,99596
2018-04-24T08:24:29.434Z,99595
2018-04-24T08:26:58.317Z,99603
2018-04-24T08:29:27.205Z,99600
2018-04-24T08:31:56.130Z,99595
2018-04-24T08:34:24.254Z,99594
2018-04-24T08:36:52.390Z,99599
2018-04-24T08:39:20.508Z,99602
2018-04-24T08:41:48.616Z,99590
2018-04-24T08:44:17.511Z,99596
2018-04-24T08:46:46.405Z,99591
2018-04-24T08:49:15.281Z,99597
2018-04-24T08:51:43.406Z,99595
2018-04-24T08:54:11.634Z,99601
2018-04-24T08:56:39.751Z,99593
2018-04-24T08:59:07.861Z,99598
2018-04-24T09:01:36.036Z,99603
2018-04-24T09:04:04.137Z,99600
2018-04-24T09:06:32.525Z,99586
2018-04-24T09:09:00.629Z,99594
2018-04-24T09:11:29.495Z,99600
2018-04-24T09:13:57.714Z,99600
2018-04-24T09:16:25.753Z,99596
2018-04-24T09:18:53.886Z,99588
2018-04-24T09:21:21.984Z,99602
2018-04-24T09:23:50.092Z,99593
2018-04-24T09:26:18.217Z,99601
2018-04-24T09:28:46.318Z,99601
2018-04-24T09:31:14.423Z,99600
2018-04-24T09:33:42.619Z,99607
2018-04-24T09:36:10.657Z,99607
2018-04-24T09:38:38.765Z,99605
2018-04-24T09:41:07.672Z,99601
2018-04-24T09:43:36.545Z,99590
2018-04-24T09:46:04.681Z,99587
2018-04-24T09:48:32.800Z,99600
2018-04-24T09:51:01.690Z,99597
2018-04-24T09:53:29.814Z,99612
2018-04-24T09:55:57.979Z,99596
2018-04-24T09:58:26.105Z,99603
2018-04-24T10:00:54.212Z,99600
2018-04-24T10:03:23.124Z,99604
2018-04-24T10:05:51.229Z,99599
2018-04-24T10:08:19.327Z,99602
2018-04-24T10:10:47.441Z,99608
2018-04-24T10:13:16.522Z,99590
2018-04-24T10:15:44.649Z,99595
2018-04-24T10:18:12.749Z,99599
2018-04-24T10:20:40.880Z,99599
2018-04-24T10:23:09.761Z,99605
2018-04-24T10:25:38.643Z,99602
2018-04-24T10:28:06.768Z,99592
2018-04-24T10:30:34.872Z,99590
2018-04-24T10:33:02.985Z,99575
2018-04-24T10:35:31.918Z,99577
2018-04-24T10:38:00.065Z,99574
2018-04-24T10:40:28.943Z,99570
2018-04-24T10:42:57.170Z,99568
2018-04-24T10:45:25.277Z,99568
2018-04-24T10:47:53.389Z,99565
2018-04-24T10:50:22.281Z,99556
2018-04-24T10:52:51.152Z,99567
2018-04-24T10:55:19.264Z,99563
2018-04-24T10:57:48.137Z,99568
2018-04-24T11:00:16.294Z,99568
2018-04-24T11:02:44.405Z,99566
2018-04-24T11:05:13.297Z,99563
2018-04-24T11:07:42.180Z,99571
2018-04-24T11:10:10.285Z,99568
2018-04-24T11:12:39.166Z,99578
2018-04-24T11:15:08.029Z,99565
2018-04-24T11:17:36.182Z,99561
2018-04-24T11:20:04.287Z,99567
2018-04-24T11:22:32.422Z,99572
2018-04-24T11:25:00.521Z,99574
2018-04-24T11:27:28.633Z,99561
2018-04-24T11:29:56.761Z,99560
2018-04-24T11:32:24.900Z,99572
2018-04-24T11:34:53.016Z,99561
2018-04-24T11:37:21.128Z,99567
2018-04-24T11:39:49.249Z,99563
2018-04-24T11:42:18.161Z,99568
2018-04-24T11:44:46.266Z,99566
2018-04-24T11:47:14.390Z,99566
2018-04-24T11:49:43.327Z,99562
2018-04-24T11:52:12.171Z,99548
2018-04-24T11:54:41.098Z,99560
2018-04-24T11:57:09.414Z,99562
2018-04-24T11:59:38.229Z,99564
2018-04-24T12:02:06.352Z,99555
2018-04-24T12:04:34.459Z,99557
2018-04-24T12:07:02.589Z,99561
2018-04-24T12:09:30.782Z,99551
2018-04-24T12:11:58.899Z,99554
2018-04-24T12:14:27.004Z,99556
2018-04-24T12:16:55.893Z,99557
2018-04-24T12:19:24.010Z,99553
2018-04-24T12:21:52.168Z,99557
2018-04-24T12:24:21.052Z,99556
2018-04-24T12:26:49.985Z,99562
2018-04-24T12:29:18.107Z,99561
2018-04-24T12:31:46.213Z,99562
2018-04-24T12:34:15.104Z,99560
2018-04-24T12:36:43.979Z,99555
2018-04-24T12:39:12.289Z,99553
2018-04-24T12:41:40.407Z,99551
2018-04-24T12:44:08.509Z,99556
2018-04-24T12:46:37.452Z,99557
2018-04-24T12:49:05.556Z,99541
2018-04-24T12:51:33.683Z,99555
2018-04-24T12:54:02.556Z,99546
2018-04-24T12:56:32.190Z,99553
2018-04-24T12:59:01.074Z,99548
2018-04-24T13:01:29.286Z,99546
2018-04-24T13:03:57.425Z,99541
2018-04-24T13:06:25.517Z,99549
2018-04-24T13:08:54.436Z,99544
2018-04-24T13:11:22.551Z,99537
2018-04-24T13:13:50.668Z,99533
2018-04-24T13:16:19.581Z,99536
2018-04-24T13:18:47.702Z,99536
2018-04-24T13:21:15.848Z,99527
2018-04-24T13:23:43.949Z,99521
2018-04-24T13:26:12.067Z,99518
2018-04-24T13:28:40.946Z,99515
2018-04-24T13:31:09.070Z,99520
2018-04-24T13:33:37.221Z,99521
2018-04-24T13:36:06.116Z,99521
2018-04-24T13:38:34.995Z,99524
2018-04-24T13:41:03.895Z,99525
2018-04-24T13:43:32.787Z,99520
2018-04-24T13:46:00.917Z,99519
2018-04-24T13:48:29.039Z,99526
2018-04-24T13:50:57.143Z,99527
2018-04-24T13:53:25.259Z,99525
2018-04-24T13:55:53.383Z,99522
2018-04-24T13:58:22.259Z,99517
2018-04-24T14:00:50.392Z,99528
2018-04-24T14:03:18.501Z,99525
2018-04-24T14:05:46.625Z,99523
2018-04-24T14:08:14.741Z,99527
2018-04-24T14:10:42.884Z,99513
2018-04-24T14:13:10.994Z,99515
2018-04-24T14:15:39.121Z,99513
2018-04-24T14:18:08.007Z,99513
2018-04-24T14:20:36.884Z,99504
2018-04-24T14:23:05.009Z,99513
2018-04-24T14:25:33.121Z,99519
2018-04-24T14:28:01.242Z,99507
2018-04-24T14:30:30.136Z,99515
2018-04-24T14:32:59.006Z,99519
2018-04-24T14:35:27.204Z,99511
2018-04-24T14:37:56.078Z,99517
2018-04-24T14:40:24.265Z,99512
2018-04-24T14:42:52.381Z,99519
2018-04-24T14:45:20.546Z,99507
2018-04-24T14:47:49.426Z,99505
2018-04-24T14:50:18.350Z,99513
2018-04-24T14:52:46.456Z,99501
2018-04-24T14:55:14.578Z,99497
2018-04-24T14:57:43.473Z,99501
2018-04-24T15:00:12.397Z,99506
2018-04-24T15:02:40.535Z,99500
2018-04-24T15:05:08.664Z,99495
2018-04-24T15:07:36.827Z,99496
2018-04-24T15:10:04.954Z,99490
2018-04-24T15:12:33.053Z,99493
2018-04-24T15:15:01.988Z,99495
2018-04-24T15:17:30.110Z,99486
2018-04-24T15:19:58.316Z,99491
2018-04-24T15:22:27.189Z,99492
2018-04-24T15:24:56.085Z,99499
2018-04-24T15:27:25.030Z,99502
2018-04-24T15:29:53.162Z,99497
2018-04-24T15:32:21.263Z,99503
2018-04-24T15:34:49.383Z,99499
2018-04-24T15:37:17.493Z,99494
2018-04-24T15:39:45.597Z,99485
2018-04-24T15:42:13.816Z,99490
2018-04-24T15:44:41.995Z,99486
2018-04-24T15:47:10.146Z,99491
2018-04-24T15:49:38.262Z,99486
2018-04-24T15:52:06.379Z,99479
2018-04-24T15:54:35.284Z,99474
2018-04-24T15:57:03.419Z,99478
2018-04-24T15:59:31.556Z,99482
2018-04-24T16:01:59.662Z,99484
2018-04-24T16:04:27.777Z,99480
2018-04-24T16:06:56.650Z,99479
2018-04-24T16:09:24.799Z,99475
2018-04-24T16:11:52.907Z,99474
2018-04-24T16:14:21.021Z,99473
2018-04-24T16:16:49.156Z,99463
2018-04-24T16:19:17.317Z,99458
2018-04-24T16:21:45.442Z,99455
2018-04-24T16:24:14.378Z,99450
2018-04-24T16:26:42.540Z,99436
2018-04-24T16:29:10.670Z,99433
2018-04-24T16:31:39.604Z,99433
2018-04-24T16:34:07.861Z,99440
2018-04-24T16:36:36.752Z,99435
2018-04-24T16:39:06.413Z,99440
2018-04-24T16:41:34.572Z,99433
2018-04-24T16:44:02.698Z,99433
2018-04-24T16:46:30.882Z,99431
2018-04-24T16:48:59.271Z,99436
2018-04-24T16:51:27.396Z,99438
2018-04-24T16:53:55.524Z,99442
2018-04-24T16:56:24.417Z,99433
2018-04-24T16:58:53.549Z,99434
2018-04-24T17:01:22.429Z,99442
2018-04-24T17:03:51.318Z,99431
2018-04-24T17:06:20.252Z,99437
2018-04-24T17:08:48.362Z,99437
2018-04-24T17:13:50.907Z,99429
2018-04-24T17:16:19.786Z,99434
2018-04-24T17:18:48.671Z,99435
2018-04-24T17:21:17.551Z,99434
2018-04-24T17:23:46.453Z,99439
2018-04-24T17:26:14.570Z,99432
2018-04-24T17:28:42.721Z,99436
2018-04-24T17:31:11.597Z,99437
2018-04-24T17:33:39.724Z,99440
2018-04-24T17:36:07.903Z,99442
2018-04-24T17:38:36.041Z,99435
2018-04-24T17:41:04.960Z,99441
2018-04-24T17:43:33.851Z,99448
2018-04-24T17:46:02.767Z,99448
2018-04-24T17:48:30.881Z,99451
2018-04-24T17:50:58.991Z,99459
2018-04-24T17:53:27.901Z,99455
2018-04-24T17:55:56.820Z,99455
2018-04-24T17:58:24.963Z,99442
2018-04-24T18:00:53.852Z,99447
2018-04-24T18:03:22.739Z,99449
2018-04-24T18:05:50.881Z,99450
2018-04-24T18:08:19.065Z,99454
2018-04-24T18:10:47.814Z,99457
2018-04-24T18:13:15.936Z,99454
2018-04-24T18:15:44.050Z,99452
2018-04-24T18:18:12.927Z,99457
2018-04-24T18:20:41.076Z,99456
2018-04-24T18:23:09.191Z,99455
2018-04-24T18:25:37.327Z,99456
2018-04-24T18:28:05.469Z,99441
2018-04-24T18:30:33.592Z,99454
2018-04-24T18:33:02.344Z,99450
2018-04-24T18:35:31.240Z,99450
2018-04-24T18:37:59.427Z,99446
2018-04-24T18:40:27.547Z,99450
2018-04-24T18:42:55.697Z,99446
2018-04-24T18:45:23.839Z,99441
2018-04-24T18:47:52.742Z,99445
2018-04-24T18:50:21.637Z,99449
2018-04-24T18:52:50.541Z,99450
2018-04-24T18:55:18.692Z,99447
2018-04-24T18:57:47.571Z,99445
2018-04-24T19:00:15.707Z,99449
2018-04-24T19:02:43.816Z,99444
2018-04-24T19:05:11.948Z,99445
2018-04-24T19:07:40.074Z,99438
2018-04-24T19:10:08.220Z,99444
2018-04-24T19:12:36.343Z,99446
2018-04-24T19:15:04.466Z,99444
2018-04-24T19:17:32.604Z,99447
2018-04-24T19:20:01.533Z,99453
2018-04-24T19:22:29.661Z,99457
2018-04-24T19:25:03.306Z,99458
2018-04-24T19:27:31.432Z,99459
2018-04-24T19:29:59.563Z,99464
2018-04-24T19:32:30.598Z,99461
2018-04-24T19:34:59.483Z,99464
2018-04-24T19:37:28.395Z,99462
2018-04-24T19:40:02.281Z,99465
2018-04-24T19:42:31.172Z,99459
2018-04-24T19:45:00.060Z,99453
2018-04-24T19:47:28.185Z,99452
2018-04-24T19:50:01.874Z,99443
2018-04-24T19:52:29.991Z,99447
2018-04-24T19:55:03.798Z,99448
2018-04-24T19:57:31.908Z,99448
2018-04-24T20:00:00.029Z,99448
2018-04-24T20:02:28.144Z,99451
2018-04-24T20:04:56.291Z,99445
2018-04-24T20:07:24.417Z,99443
2018-04-24T20:09:52.536Z,99432
2018-04-24T20:12:20.667Z,99432
2018-04-24T20:14:49.558Z,99437
2018-04-24T20:17:17.671Z,99431
2018-04-24T20:19:45.799Z,99432
2018-04-24T20:22:13.936Z,99425
2018-04-24T20:24:42.041Z,99427
2018-04-24T20:27:10.175Z,99413
2018-04-24T20:29:38.298Z,99408
2018-04-24T20:32:06.422Z,99411
2018-04-24T20:34:35.302Z,99400
2018-04-24T20:37:03.429Z,99401
2018-04-24T20:39:31.527Z,99400
2018-04-24T20:41:59.653Z,99406
2018-04-24T20:44:27.780Z,99392
2018-04-24T20:46:55.910Z,99387
2018-04-24T20:49:24.776Z,99379
2018-04-24T20:51:52.907Z,99381
2018-04-24T20:54:21.025Z,99385
2018-04-24T20:56:49.906Z,99383
2018-04-24T20:59:18.019Z,99380
2018-04-24T21:01:46.923Z,99382
2018-04-24T21:04:15.785Z,99375
2018-04-24T21:06:43.917Z,99372
2018-04-24T21:09:12.035Z,99370
2018-04-24T21:11:40.159Z,99366
2018-04-24T21:14:08.261Z,99369
2018-04-24T21:16:36.378Z,99372
2018-04-24T21:19:05.246Z,99370
2018-04-24T21:21:33.389Z,99364
2018-04-24T21:24:01.505Z,99365
2018-04-24T21:26:29.654Z,99367
2018-04-24T21:28:57.767Z,99363
2018-04-24T21:31:26.002Z,99361
2018-04-24T21:33:54.109Z,99359
2018-04-24T21:36:22.228Z,99359
2018-04-24T21:38:51.134Z,99354
2018-04-24T21:41:20.018Z,99354
2018-04-24T21:43:48.918Z,99349
2018-04-24T21:46:17.802Z,99347
2018-04-24T21:48:46.690Z,99348
2018-04-24T21:51:15.577Z,99346
2018-04-24T21:53:43.733Z,99342
2018-04-24T21:56:11.913Z,99330
2018-04-24T21:58:40.034Z,99329
2018-04-24T22:01:08.948Z,99330
2018-04-24T22:03:37.094Z,99323
2018-04-24T22:06:05.205Z,99322
2018-04-24T22:08:33.349Z,99315
2018-04-24T22:11:02.230Z,99314
2018-04-24T22:13:30.347Z,99311
2018-04-24T22:15:58.519Z,99316
2018-04-24T22:18:27.383Z,99308
2018-04-24T22:20:55.517Z,99299
2018-04-24T22:23:23.637Z,99298
2018-04-24T22:25:52.545Z,99300
2018-04-24T22:28:20.670Z,99296
2018-04-24T22:30:48.779Z,99296
2018-04-24T22:33:16.920Z,99292
2018-04-24T22:35:45.051Z,99292
2018-04-24T22:38:13.945Z,99281
2018-04-24T22:40:42.822Z,99279
2018-04-24T22:43:10.963Z,99277
2018-04-24T22:45:39.067Z,99280
2018-04-24T22:48:07.200Z,99266
2018-04-24T22:50:35.315Z,99270
2018-04-24T22:53:03.420Z,99265
2018-04-24T22:55:32.318Z,99268
2018-04-24T22:58:00.446Z,99264
2018-04-24T23:00:28.618Z,99255
2018-04-24T23:02:56.746Z,99253
2018-04-24T23:05:24.859Z,99247
2018-04-24T23:07:53.766Z,99239
2018-04-24T23:10:39.679Z,99238
2018-04-24T23:13:25.806Z,99239
2018-04-24T23:16:11.874Z,99228
2018-04-24T23:18:57.985Z,99236
2018-04-24T23:21:26.134Z,99223
2018-04-24T23:23:54.245Z,99212
2018-04-24T23:26:23.106Z,99213
2018-04-24T23:28:51.237Z,99214
2018-04-24T23:31:19.341Z,99215
2018-04-24T23:33:47.445Z,99211
2018-04-24T23:36:15.570Z,99198
2018-04-24T23:38:43.682Z,99197
2018-04-24T23:41:11.807Z,99199
2018-04-24T23:43:40.681Z,99192
2018-04-24T23:46:08.829Z,99188
2018-04-24T23:48:36.937Z,99182
2018-04-24T23:51:05.043Z,99178
2018-04-24T23:53:33.154Z,99174
2018-04-24T23:56:01.257Z,99174
2018-04-24T23:58:29.370Z,99166
